Kuper — CFN4618 — position and weather

sailwx.info

Track history (hours):
 
Tides and Currents Weather Stations Pressure Air Temp Water Temp Dewpoint Dewpoint Depression Visibility Wind Speed Wind Dir Waves Ship Positions

Kuper

Last reported at 2018-Jan-23 22:45 UTC. Time now 2018-Jan-23 23:32 UTC.
Position N 48°58' W 123°41'.

Length 50 m; draft 2 m.

Type: Passenger vessel. MMSI: 316009547.

Date/timePositionNaut miles runAvg speedWind from/ knotsBaromVisibWave heightAir tempDewpointWater temp
2018-Jan-23 22:45N 48°58' W 123°41'1 1.9
2018-Jan-23 22:23N 48°59' W 123°41'3 8.6
2018-Jan-23 22:00N 48°56' W 123°43'2 3.8
2018-Jan-23 21:28N 48°58' W 123°42'2 2.9
2018-Jan-23 20:57N 48°58' W 123°40'3 6.8
2018-Jan-23 20:29N 48°56' W 123°43'0 0.2
2018-Jan-23 19:50N 48°56' W 123°43'3 8.0
2018-Jan-23 19:30N 48°58' W 123°41'1 2.1
2018-Jan-23 18:58N 48°58' W 123°40'2 5.0
2018-Jan-23 18:30N 48°56' W 123°42'1 2.1
2018-Jan-23 17:50N 48°57' W 123°40'1 2.6
2018-Jan-23 17:24N 48°59' W 123°41'2 3.8
2018-Jan-23 16:59N 48°57' W 123°42'1 2.0
2018-Jan-23 16:28N 48°56' W 123°43'3 6.2
2018-Jan-23 16:00N 48°59' W 123°41'1 2.9
2018-Jan-23 15:30N 48°57' W 123°40'2 4.3
2018-Jan-23 14:59N 48°56' W 123°43'3 6.1
2018-Jan-23 14:28N 48°58' W 123°40'1 0.1
2018-Jan-23 06:44N 48°59' W 123°41'1 3.8
2018-Jan-23 06:30N 48°58' W 123°40'3 4.6
2018-Jan-23 05:47N 48°56' W 123°43'3 7.9
2018-Jan-23 05:26N 48°58' W 123°41'1 2.4
2018-Jan-23 04:59N 48°58' W 123°40'3 6.2
2018-Jan-23 04:30N 48°56' W 123°42'2 3.2
2018-Jan-23 04:00N 48°57' W 123°41'2 2.3
2018-Jan-23 03:19N 48°59' W 123°41'2 6.2
2018-Jan-23 03:00N 48°57' W 123°42'1 1.4
2018-Jan-23 02:30N 48°56' W 123°42'2 3.4
2018-Jan-23 01:51N 48°58' W 123°41'1 1.9
2018-Jan-23 01:29N 48°58' W 123°42'1 2.0
2018-Jan-23 00:51N 48°57' W 123°42'2 3.8
2018-Jan-23 00:14N 48°58' W 123°40'1 2.4
2018-Jan-23 00:00N 48°58' W 123°40'3 4.8
2018-Jan-22 23:25N 48°56' W 123°43'3 7.6
2018-Jan-22 22:59N 48°58' W 123°40'1 1.7
2018-Jan-22 22:27N 48°59' W 123°41'3 6.0
2018-Jan-22 22:00N 48°56' W 123°42'1 1.5
2018-Jan-22 21:29N 48°57' W 123°42'1 1.6
2018-Jan-22 20:42N 48°58' W 123°40'1 6.8
2018-Jan-22 20:30N 48°57' W 123°41'1 1.7
2018-Jan-22 19:42N 48°56' W 123°43'2 7.7
2018-Jan-22 19:30N 48°57' W 123°42'1 1.5
2018-Jan-22 18:38N 48°58' W 123°40'1 7.0
2018-Jan-22 18:29N 48°57' W 123°41'1 1.6
2018-Jan-22 17:58N 48°56' W 123°42'2 5.0
2018-Jan-22 17:30N 48°58' W 123°40'1 2.7
2018-Jan-22 16:59N 48°57' W 123°42'2 2.9
2018-Jan-22 16:28N 48°56' W 123°43'3 6.3
2018-Jan-22 15:59N 48°59' W 123°41'1 2.4
2018-Jan-22 15:29N 48°58' W 123°40'2 3.7
2018-Jan-22 14:55N 48°56' W 123°42'3 6.5
2018-Jan-22 14:29N 48°58' W 123°40'1 0.1
2018-Jan-22 06:45N 48°59' W 123°41'1 3.5
2018-Jan-22 06:29N 48°58' W 123°40'2 2.3
2018-Jan-22 05:34N 48°57' W 123°42'1 8.6
2018-Jan-22 05:27N 48°58' W 123°42'1 2.9
2018-Jan-22 04:59N 48°58' W 123°40'3 5.6
2018-Jan-22 04:30N 48°56' W 123°42'1 1.9
2018-Jan-22 03:59N 48°57' W 123°41'1 2.9
2018-Jan-22 03:30N 48°58' W 123°41'1 3.0
2018-Jan-22 03:00N 48°57' W 123°42'1 1.6
2018-Jan-22 02:30N 48°56' W 123°42'3 3.3
2018-Jan-22 01:38N 48°59' W 123°41'1 8.0
2018-Jan-22 01:30N 48°58' W 123°42'2 3.9
2018-Jan-22 00:57N 48°56' W 123°43'3 5.9
2018-Jan-22 00:26N 48°59' W 123°41'1 2.7
2018-Jan-22 00:00N 48°58' W 123°40'3 5.0
2018-Jan-21 23:27N 48°56' W 123°43'3 7.1
2018-Jan-21 22:59N 48°58' W 123°40'1 1.3
2018-Jan-21 22:17N 48°58' W 123°41'2 9.0
2018-Jan-21 22:00N 48°56' W 123°43'1 2.9
2018-Jan-21 21:31N 48°57' W 123°42'1 2.5
2018-Jan-21 21:00N 48°58' W 123°40'2 3.6
2018-Jan-21 20:30N 48°56' W 123°41'1 1.7
2018-Jan-21 19:45N 48°56' W 123°43'2 7.9
2018-Jan-21 19:27N 48°58' W 123°42'1 2.8
2018-Jan-21 18:57N 48°58' W 123°40'1 0.5
2018-Jan-21 17:10N 48°58' W 123°41'2 7.9
2018-Jan-21 16:56N 48°57' W 123°42'0 0.9
2018-Jan-21 16:30N 48°56' W 123°42'3 5.1
2018-Jan-21 16:00N 48°59' W 123°41'2 3.7
2018-Jan-21 15:29N 48°57' W 123°41'1 3.0
2018-Jan-21 15:00N 48°56' W 123°43'3 5.5
2018-Jan-21 14:30N 48°58' W 123°40'1 0.1
2018-Jan-21 06:49N 48°59' W 123°41'1 2.6
2018-Jan-21 06:28N 48°58' W 123°40'3 3.8
2018-Jan-21 05:41N 48°56' W 123°43'2 8.6
2018-Jan-21 05:27N 48°58' W 123°42'1 2.8
2018-Jan-21 04:59N 48°58' W 123°40'3 5.6
2018-Jan-21 04:28N 48°56' W 123°42'2 2.9
2018-Jan-21 03:57N 48°57' W 123°41'2 2.7
2018-Jan-21 03:18N 48°59' W 123°41'3 7.0
2018-Jan-21 02:57N 48°57' W 123°42'1 1.6
2018-Jan-21 02:25N 48°56' W 123°41'2 3.4
2018-Jan-21 01:54N 48°58' W 123°41'1 2.7
2018-Jan-21 01:28N 48°57' W 123°42'2 1.4
2018-Jan-21 00:16N 48°58' W 123°40'1 4.6
2018-Jan-20 23:59N 48°57' W 123°41'2 4.2
2018-Jan-20 23:30N 48°56' W 123°43'3 6.7
2018-Jan-20 23:00N 48°58' W 123°40'1 1.2
2018-Jan-20 22:15N 48°59' W 123°41'2 8.4
2018-Jan-20 21:59N 48°57' W 123°42'0 0.5
2018-Jan-20 21:31N 48°57' W 123°42'2 3.6
2018-Jan-20 20:59N 48°58' W 123°41'1 2.6
2018-Jan-20 20:30N 48°57' W 123°41'2 2.3
2018-Jan-20 19:42N 48°56' W 123°43'2 7.3
2018-Jan-20 19:29N 48°57' W 123°42'2 3.2
2018-Jan-20 18:57N 48°58' W 123°40'1 2.4
2018-Jan-20 18:29N 48°57' W 123°41'2 4.3
2018-Jan-20 18:00N 48°56' W 123°43'3 6.6
2018-Jan-20 17:30N 48°58' W 123°40'1 2.2
2018-Jan-20 17:00N 48°58' W 123°41'3 5.2
2018-Jan-20 16:30N 48°56' W 123°43'3 6.5
2018-Jan-20 15:59N 48°59' W 123°41'2 3.5
2018-Jan-20 15:28N 48°57' W 123°41'2 4.0
2018-Jan-20 14:59N 48°56' W 123°43'3 6.7
2018-Jan-20 14:29N 48°58' W 123°40'1 0.1
2018-Jan-20 08:23N 48°59' W 123°41'0 0.0
2018-Jan-20 07:29N 48°59' W 123°41'1 1.1
2018-Jan-20 06:58N 48°58' W 123°41'1 2.9
2018-Jan-20 06:30N 48°57' W 123°41'2 3.4
2018-Jan-20 05:59N 48°56' W 123°43'4 6.5
2018-Jan-20 05:26N 48°59' W 123°41'1 2.9
2018-Jan-20 04:59N 48°58' W 123°40'3 5.3
2018-Jan-20 04:30N 48°56' W 123°43'3 6.6
2018-Jan-20 04:00N 48°58' W 123°40'1 2.3
2018-Jan-20 03:23N 48°58' W 123°42'2 4.7
2018-Jan-20 02:55N 48°56' W 123°43'3 5.7
2018-Jan-20 02:19N 48°58' W 123°40'1 2.4
2018-Jan-20 01:57N 48°59' W 123°41'3 5.0
2018-Jan-20 01:18N 48°56' W 123°43'3 7.1
2018-Jan-20 00:55N 48°58' W 123°41'1 2.1
2018-Jan-20 00:29N 48°58' W 123°40'3 4.8
2018-Jan-19 23:46N 48°56' W 123°43'2 8.0
2018-Jan-19 23:28N 48°57' W 123°40'1 3.0
2018-Jan-19 23:00N 48°59' W 123°41'2 5.0
2018-Jan-19 22:30N 48°57' W 123°42'1 1.7
2018-Jan-19 21:59N 48°57' W 123°41'2 3.1
2018-Jan-19 21:24N 48°59' W 123°41'3 5.5
2018-Jan-19 20:55N 48°56' W 123°42'0 0.5
2018-Jan-19 20:28N 48°56' W 123°42'3 5.4
2018-Jan-19 20:00N 48°58' W 123°40'3 3.3
2018-Jan-19 19:13N 48°56' W 123°42'2 7.6
2018-Jan-19 19:00N 48°58' W 123°41'1 2.5
2018-Jan-19 18:31N 48°58' W 123°40'2 4.4
2018-Jan-19 18:00N 48°56' W 123°42'1 1.4
2018-Jan-19 17:29N 48°57' W 123°42'0 0.9
2018-Jan-19 16:58N 48°58' W 123°42'2 3.2
2018-Jan-19 16:27N 48°56' W 123°42'3 6.5
2018-Jan-19 15:59N 48°59' W 123°41'1 2.7
2018-Jan-19 15:29N 48°58' W 123°40'3 5.1
2018-Jan-19 14:59N 48°56' W 123°43'3 6.9
2018-Jan-19 14:30N 48°58' W 123°40'1 1.8
2018-Jan-19 13:59N 48°59' W 123°41'0 0.0
2018-Jan-19 06:43N 48°59' W 123°41'1 4.2
2018-Jan-19 06:30N 48°58' W 123°40'1 0.7
2018-Jan-19 05:10N 48°59' W 123°41'1 5.3
2018-Jan-19 05:00N 48°58' W 123°40'3 5.1
2018-Jan-19 04:30N 48°56' W 123°42'2 3.0
2018-Jan-19 03:51N 48°58' W 123°40'1 2.9
2018-Jan-19 03:26N 48°59' W 123°41'2 4.7
2018-Jan-19 03:00N 48°57' W 123°42'1 1.2
2018-Jan-19 02:30N 48°56' W 123°42'3 3.8
2018-Jan-19 01:49N 48°59' W 123°41'2 5.3
2018-Jan-19 01:28N 48°57' W 123°42'2 3.3
2018-Jan-19 01:00N 48°56' W 123°43'3 3.6
2018-Jan-19 00:05N 48°58' W 123°40'1 6.4
2018-Jan-18 23:52N 48°57' W 123°41'2 2.9
2018-Jan-18 23:13N 48°56' W 123°43'3 3.9
2018-Jan-18 22:30N 48°58' W 123°41'2 4.0
2018-Jan-18 22:00N 48°56' W 123°42'1 1.3
2018-Jan-18 21:27N 48°57' W 123°42'1 3.0
2018-Jan-18 21:00N 48°58' W 123°41'2 3.1
2018-Jan-18 20:27N 48°57' W 123°42'1 2.0
2018-Jan-18 19:50N 48°56' W 123°43'2 7.0
2018-Jan-18 19:30N 48°58' W 123°41'1 2.5
2018-Jan-18 18:59N 48°58' W 123°40'3 5.3
2018-Jan-18 18:24N 48°56' W 123°43'1 2.4
2018-Jan-18 17:59N 48°57' W 123°42'2 3.1
2018-Jan-18 17:27N 48°58' W 123°41'1 3.0
2018-Jan-18 17:00N 48°57' W 123°42'1 1.2
2018-Jan-18 16:28N 48°57' W 123°42'2 4.8
2018-Jan-18 16:00N 48°59' W 123°41'1 2.9
2018-Jan-18 15:30N 48°57' W 123°40'2 4.1
2018-Jan-18 14:58N 48°56' W 123°43'3 7.3
2018-Jan-18 14:30N 48°58' W 123°40'1 0.1
2018-Jan-18 06:47N 48°59' W 123°41'1 3.2
2018-Jan-18 06:30N 48°58' W 123°40'3 4.5
2018-Jan-18 05:47N 48°56' W 123°43'3 8.2
2018-Jan-18 05:23N 48°59' W 123°41'1 2.4
2018-Jan-18 05:00N 48°58' W 123°40'3 4.9
2018-Jan-18 04:21N 48°56' W 123°43'2 6.1
2018-Jan-18 03:58N 48°58' W 123°40'1 2.8
2018-Jan-18 03:30N 48°59' W 123°41'2 4.6
2018-Jan-18 03:00N 48°57' W 123°42'0 0.9
2018-Jan-18 02:27N 48°57' W 123°41'1 3.1
2018-Jan-18 02:00N 48°58' W 123°41'2 3.2
2018-Jan-18 01:29N 48°57' W 123°42'0 0.9
2018-Jan-18 01:00N 48°56' W 123°42'0 0.2
2018-Jan-17 23:53N 48°56' W 123°42'  
Track history (hours):
 
Tides and Currents Weather Stations Pressure Air Temp Water Temp Dewpoint Dewpoint Depression Visibility Wind Speed Wind Dir Waves Ship Positions

Kuper

Last reported at 2018-Jan-23 22:45 UTC. Time now 2018-Jan-23 23:32 UTC.
Position N 48°58' W 123°41'.

Length 50 m; draft 2 m.

Type: Passenger vessel. MMSI: 316009547.

Date/timePositionNaut miles runAvg speedWind from/ knotsBaromVisibWave heightAir tempDewpointWater temp
2018-Jan-23 22:45N 48°58' W 123°41'1 1.9
2018-Jan-23 22:23N 48°59' W 123°41'3 8.6
2018-Jan-23 22:00N 48°56' W 123°43'2 3.8
2018-Jan-23 21:28N 48°58' W 123°42'2 2.9
2018-Jan-23 20:57N 48°58' W 123°40'3 6.8
2018-Jan-23 20:29N 48°56' W 123°43'0 0.2
2018-Jan-23 19:50N 48°56' W 123°43'3 8.0
2018-Jan-23 19:30N 48°58' W 123°41'1 2.1
2018-Jan-23 18:58N 48°58' W 123°40'2 5.0
2018-Jan-23 18:30N 48°56' W 123°42'1 2.1
2018-Jan-23 17:50N 48°57' W 123°40'1 2.6
2018-Jan-23 17:24N 48°59' W 123°41'2 3.8
2018-Jan-23 16:59N 48°57' W 123°42'1 2.0
2018-Jan-23 16:28N 48°56' W 123°43'3 6.2
2018-Jan-23 16:00N 48°59' W 123°41'1 2.9
2018-Jan-23 15:30N 48°57' W 123°40'2 4.3
2018-Jan-23 14:59N 48°56' W 123°43'3 6.1
2018-Jan-23 14:28N 48°58' W 123°40'1 0.1
2018-Jan-23 06:44N 48°59' W 123°41'1 3.8
2018-Jan-23 06:30N 48°58' W 123°40'3 4.6
2018-Jan-23 05:47N 48°56' W 123°43'3 7.9
2018-Jan-23 05:26N 48°58' W 123°41'1 2.4
2018-Jan-23 04:59N 48°58' W 123°40'3 6.2
2018-Jan-23 04:30N 48°56' W 123°42'2 3.2
2018-Jan-23 04:00N 48°57' W 123°41'2 2.3
2018-Jan-23 03:19N 48°59' W 123°41'2 6.2
2018-Jan-23 03:00N 48°57' W 123°42'1 1.4
2018-Jan-23 02:30N 48°56' W 123°42'2 3.4
2018-Jan-23 01:51N 48°58' W 123°41'1 1.9
2018-Jan-23 01:29N 48°58' W 123°42'1 2.0
2018-Jan-23 00:51N 48°57' W 123°42'2 3.8
2018-Jan-23 00:14N 48°58' W 123°40'1 2.4
2018-Jan-23 00:00N 48°58' W 123°40'3 4.8
2018-Jan-22 23:25N 48°56' W 123°43'3 7.6
2018-Jan-22 22:59N 48°58' W 123°40'1 1.7
2018-Jan-22 22:27N 48°59' W 123°41'3 6.0
2018-Jan-22 22:00N 48°56' W 123°42'1 1.5
2018-Jan-22 21:29N 48°57' W 123°42'1 1.6
2018-Jan-22 20:42N 48°58' W 123°40'1 6.8
2018-Jan-22 20:30N 48°57' W 123°41'1 1.7
2018-Jan-22 19:42N 48°56' W 123°43'2 7.7
2018-Jan-22 19:30N 48°57' W 123°42'1 1.5
2018-Jan-22 18:38N 48°58' W 123°40'1 7.0
2018-Jan-22 18:29N 48°57' W 123°41'1 1.6
2018-Jan-22 17:58N 48°56' W 123°42'2 5.0
2018-Jan-22 17:30N 48°58' W 123°40'1 2.7
2018-Jan-22 16:59N 48°57' W 123°42'2 2.9
2018-Jan-22 16:28N 48°56' W 123°43'3 6.3
2018-Jan-22 15:59N 48°59' W 123°41'1 2.4
2018-Jan-22 15:29N 48°58' W 123°40'2 3.7
2018-Jan-22 14:55N 48°56' W 123°42'3 6.5
2018-Jan-22 14:29N 48°58' W 123°40'1 0.1
2018-Jan-22 06:45N 48°59' W 123°41'1 3.5
2018-Jan-22 06:29N 48°58' W 123°40'2 2.3
2018-Jan-22 05:34N 48°57' W 123°42'1 8.6
2018-Jan-22 05:27N 48°58' W 123°42'1 2.9
2018-Jan-22 04:59N 48°58' W 123°40'3 5.6
2018-Jan-22 04:30N 48°56' W 123°42'1 1.9
2018-Jan-22 03:59N 48°57' W 123°41'1 2.9
2018-Jan-22 03:30N 48°58' W 123°41'1 3.0
2018-Jan-22 03:00N 48°57' W 123°42'1 1.6
2018-Jan-22 02:30N 48°56' W 123°42'3 3.3
2018-Jan-22 01:38N 48°59' W 123°41'1 8.0
2018-Jan-22 01:30N 48°58' W 123°42'2 3.9
2018-Jan-22 00:57N 48°56' W 123°43'3 5.9
2018-Jan-22 00:26N 48°59' W 123°41'1 2.7
2018-Jan-22 00:00N 48°58' W 123°40'3 5.0
2018-Jan-21 23:27N 48°56' W 123°43'3 7.1
2018-Jan-21 22:59N 48°58' W 123°40'1 1.3
2018-Jan-21 22:17N 48°58' W 123°41'2 9.0
2018-Jan-21 22:00N 48°56' W 123°43'1 2.9
2018-Jan-21 21:31N 48°57' W 123°42'1 2.5
2018-Jan-21 21:00N 48°58' W 123°40'2 3.6
2018-Jan-21 20:30N 48°56' W 123°41'1 1.7
2018-Jan-21 19:45N 48°56' W 123°43'2 7.9
2018-Jan-21 19:27N 48°58' W 123°42'1 2.8
2018-Jan-21 18:57N 48°58' W 123°40'1 0.5
2018-Jan-21 17:10N 48°58' W 123°41'2 7.9
2018-Jan-21 16:56N 48°57' W 123°42'0 0.9
2018-Jan-21 16:30N 48°56' W 123°42'3 5.1
2018-Jan-21 16:00N 48°59' W 123°41'2 3.7
2018-Jan-21 15:29N 48°57' W 123°41'1 3.0
2018-Jan-21 15:00N 48°56' W 123°43'3 5.5
2018-Jan-21 14:30N 48°58' W 123°40'1 0.1
2018-Jan-21 06:49N 48°59' W 123°41'1 2.6
2018-Jan-21 06:28N 48°58' W 123°40'3 3.8
2018-Jan-21 05:41N 48°56' W 123°43'2 8.6
2018-Jan-21 05:27N 48°58' W 123°42'1 2.8
2018-Jan-21 04:59N 48°58' W 123°40'3 5.6
2018-Jan-21 04:28N 48°56' W 123°42'2 2.9
2018-Jan-21 03:57N 48°57' W 123°41'2 2.7
2018-Jan-21 03:18N 48°59' W 123°41'3 7.0
2018-Jan-21 02:57N 48°57' W 123°42'1 1.6
2018-Jan-21 02:25N 48°56' W 123°41'2 3.4
2018-Jan-21 01:54N 48°58' W 123°41'1 2.7
2018-Jan-21 01:28N 48°57' W 123°42'2 1.4
2018-Jan-21 00:16N 48°58' W 123°40'1 4.6
2018-Jan-20 23:59N 48°57' W 123°41'2 4.2
2018-Jan-20 23:30N 48°56' W 123°43'3 6.7
2018-Jan-20 23:00N 48°58' W 123°40'1 1.2
2018-Jan-20 22:15N 48°59' W 123°41'2 8.4
2018-Jan-20 21:59N 48°57' W 123°42'0 0.5
2018-Jan-20 21:31N 48°57' W 123°42'2 3.6
2018-Jan-20 20:59N 48°58' W 123°41'1 2.6
2018-Jan-20 20:30N 48°57' W 123°41'2 2.3
2018-Jan-20 19:42N 48°56' W 123°43'2 7.3
2018-Jan-20 19:29N 48°57' W 123°42'2 3.2
2018-Jan-20 18:57N 48°58' W 123°40'1 2.4
2018-Jan-20 18:29N 48°57' W 123°41'2 4.3
2018-Jan-20 18:00N 48°56' W 123°43'3 6.6
2018-Jan-20 17:30N 48°58' W 123°40'1 2.2
2018-Jan-20 17:00N 48°58' W 123°41'3 5.2
2018-Jan-20 16:30N 48°56' W 123°43'3 6.5
2018-Jan-20 15:59N 48°59' W 123°41'2 3.5
2018-Jan-20 15:28N 48°57' W 123°41'2 4.0
2018-Jan-20 14:59N 48°56' W 123°43'3 6.7
2018-Jan-20 14:29N 48°58' W 123°40'1 0.1
2018-Jan-20 08:23N 48°59' W 123°41'0 0.0
2018-Jan-20 07:29N 48°59' W 123°41'1 1.1
2018-Jan-20 06:58N 48°58' W 123°41'1 2.9
2018-Jan-20 06:30N 48°57' W 123°41'2 3.4
2018-Jan-20 05:59N 48°56' W 123°43'4 6.5
2018-Jan-20 05:26N 48°59' W 123°41'1 2.9
2018-Jan-20 04:59N 48°58' W 123°40'3 5.3
2018-Jan-20 04:30N 48°56' W 123°43'3 6.6
2018-Jan-20 04:00N 48°58' W 123°40'1 2.3
2018-Jan-20 03:23N 48°58' W 123°42'2 4.7
2018-Jan-20 02:55N 48°56' W 123°43'3 5.7
2018-Jan-20 02:19N 48°58' W 123°40'1 2.4
2018-Jan-20 01:57N 48°59' W 123°41'3 5.0
2018-Jan-20 01:18N 48°56' W 123°43'3 7.1
2018-Jan-20 00:55N 48°58' W 123°41'1 2.1
2018-Jan-20 00:29N 48°58' W 123°40'3 4.8
2018-Jan-19 23:46N 48°56' W 123°43'2 8.0
2018-Jan-19 23:28N 48°57' W 123°40'1 3.0
2018-Jan-19 23:00N 48°59' W 123°41'2 5.0
2018-Jan-19 22:30N 48°57' W 123°42'1 1.7
2018-Jan-19 21:59N 48°57' W 123°41'2 3.1
2018-Jan-19 21:24N 48°59' W 123°41'3 5.5
2018-Jan-19 20:55N 48°56' W 123°42'0 0.5
2018-Jan-19 20:28N 48°56' W 123°42'3 5.4
2018-Jan-19 20:00N 48°58' W 123°40'3 3.3
2018-Jan-19 19:13N 48°56' W 123°42'2 7.6
2018-Jan-19 19:00N 48°58' W 123°41'1 2.5
2018-Jan-19 18:31N 48°58' W 123°40'2 4.4
2018-Jan-19 18:00N 48°56' W 123°42'1 1.4
2018-Jan-19 17:29N 48°57' W 123°42'0 0.9
2018-Jan-19 16:58N 48°58' W 123°42'2 3.2
2018-Jan-19 16:27N 48°56' W 123°42'3 6.5
2018-Jan-19 15:59N 48°59' W 123°41'1 2.7
2018-Jan-19 15:29N 48°58' W 123°40'3 5.1
2018-Jan-19 14:59N 48°56' W 123°43'3 6.9
2018-Jan-19 14:30N 48°58' W 123°40'1 1.8
2018-Jan-19 13:59N 48°59' W 123°41'0 0.0
2018-Jan-19 06:43N 48°59' W 123°41'1 4.2
2018-Jan-19 06:30N 48°58' W 123°40'1 0.7
2018-Jan-19 05:10N 48°59' W 123°41'1 5.3
2018-Jan-19 05:00N 48°58' W 123°40'3 5.1
2018-Jan-19 04:30N 48°56' W 123°42'2 3.0
2018-Jan-19 03:51N 48°58' W 123°40'1 2.9
2018-Jan-19 03:26N 48°59' W 123°41'2 4.7
2018-Jan-19 03:00N 48°57' W 123°42'1 1.2
2018-Jan-19 02:30N 48°56' W 123°42'3 3.8
2018-Jan-19 01:49N 48°59' W 123°41'2 5.3
2018-Jan-19 01:28N 48°57' W 123°42'2 3.3
2018-Jan-19 01:00N 48°56' W 123°43'3 3.6
2018-Jan-19 00:05N 48°58' W 123°40'1 6.4
2018-Jan-18 23:52N 48°57' W 123°41'2 2.9
2018-Jan-18 23:13N 48°56' W 123°43'3 3.9
2018-Jan-18 22:30N 48°58' W 123°41'2 4.0
2018-Jan-18 22:00N 48°56' W 123°42'1 1.3
2018-Jan-18 21:27N 48°57' W 123°42'1 3.0
2018-Jan-18 21:00N 48°58' W 123°41'2 3.1
2018-Jan-18 20:27N 48°57' W 123°42'1 2.0
2018-Jan-18 19:50N 48°56' W 123°43'2 7.0
2018-Jan-18 19:30N 48°58' W 123°41'1 2.5
2018-Jan-18 18:59N 48°58' W 123°40'3 5.3
2018-Jan-18 18:24N 48°56' W 123°43'1 2.4
2018-Jan-18 17:59N 48°57' W 123°42'2 3.1
2018-Jan-18 17:27N 48°58' W 123°41'1 3.0
2018-Jan-18 17:00N 48°57' W 123°42'1 1.2
2018-Jan-18 16:28N 48°57' W 123°42'2 4.8
2018-Jan-18 16:00N 48°59' W 123°41'1 2.9
2018-Jan-18 15:30N 48°57' W 123°40'2 4.1
2018-Jan-18 14:58N 48°56' W 123°43'3 7.3
2018-Jan-18 14:30N 48°58' W 123°40'1 0.1
2018-Jan-18 06:47N 48°59' W 123°41'1 3.2
2018-Jan-18 06:30N 48°58' W 123°40'3 4.5
2018-Jan-18 05:47N 48°56' W 123°43'3 8.2
2018-Jan-18 05:23N 48°59' W 123°41'1 2.4
2018-Jan-18 05:00N 48°58' W 123°40'3 4.9
2018-Jan-18 04:21N 48°56' W 123°43'2 6.1
2018-Jan-18 03:58N 48°58' W 123°40'1 2.8
2018-Jan-18 03:30N 48°59' W 123°41'2 4.6
2018-Jan-18 03:00N 48°57' W 123°42'0 0.9
2018-Jan-18 02:27N 48°57' W 123°41'1 3.1
2018-Jan-18 02:00N 48°58' W 123°41'2 3.2
2018-Jan-18 01:29N 48°57' W 123°42'0 0.9
2018-Jan-18 01:00N 48°56' W 123°42'0 0.2
2018-Jan-17 23:53N 48°56' W 123°42'  

Dump ship's entire track history